Time;durP1;ratioP1;P1;durP2;ratioP2;P2;SDS_P1;SDS_P2;PMS_P1;PMS_P2;Temp;Humidity;BMP_temperature;BMP_pressure;BME280_temperature;BME280_humidity;BME280_pressure;Samples;Min_cycle;Max_cycle;Signal;HPM_P1;HPM_P2
2022/05/18 00:00:08;;;;;;;5.83;4.33;;;;;;;16.20;100.00;100510.53;5026791;28;20573;-61
2022/05/18 00:02:33;;;;;;;9.13;4.93;;;;;;;16.14;100.00;100511.81;5020253;28;20287;-57
2022/05/18 00:04:59;;;;;;;4.10;3.70;;;;;;;16.10;100.00;100516.41;5031233;28;20174;-58
2022/05/18 00:07:24;;;;;;;7.37;4.60;;;;;;;16.07;100.00;100520.97;5030777;28;20536;-58
2022/05/18 00:09:51;;;;;;;4.20;3.80;;;;;;;16.03;100.00;100525.53;5030660;28;20212;-58
2022/05/18 00:12:17;;;;;;;6.53;4.30;;;;;;;16.02;100.00;100529.06;5054357;28;20240;-59
2022/05/18 00:14:43;;;;;;;6.60;4.37;;;;;;;16.00;100.00;100533.56;5063658;28;20296;-61
2022/05/18 00:17:08;;;;;;;5.33;4.53;;;;;;;15.98;100.00;100536.25;5048890;28;20343;-58
2022/05/18 00:19:34;;;;;;;5.23;4.67;;;;;;;15.92;100.00;100535.84;5050898;28;20644;-58
2022/05/18 00:21:59;;;;;;;6.30;4.57;;;;;;;15.88;100.00;100534.44;5055863;28;20243;-59
2022/05/18 00:24:25;;;;;;;5.00;4.50;;;;;;;15.85;100.00;100534.63;5051648;28;20191;-59
2022/05/18 00:26:50;;;;;;;7.23;4.80;;;;;;;15.79;100.00;100535.88;5050418;28;20177;-59
2022/05/18 00:29:16;;;;;;;5.10;4.60;;;;;;;15.73;100.00;100537.09;5050852;28;20181;-59
2022/05/18 00:31:42;;;;;;;6.43;4.83;;;;;;;15.73;100.00;100528.50;5053214;28;20233;-59
2022/05/18 00:34:08;;;;;;;5.50;4.90;;;;;;;15.80;100.00;100527.97;5054130;28;20597;-58
2022/05/18 00:36:34;;;;;;;5.67;4.90;;;;;;;15.79;100.00;100520.31;5060857;28;20184;-58
2022/05/18 00:38:59;;;;;;;6.57;5.37;;;;;;;15.76;100.00;100523.91;5055036;28;20731;-59
2022/05/18 00:41:24;;;;;;;5.23;4.50;;;;;;;15.73;100.00;100518.94;5066848;28;20652;-59
2022/05/18 00:43:51;;;;;;;6.73;4.70;;;;;;;15.71;100.00;100535.56;5064682;28;20220;-58
2022/05/18 00:46:17;;;;;;;6.83;4.57;;;;;;;15.65;100.00;100529.88;5053022;28;20173;-59
2022/05/18 00:48:43;;;;;;;6.80;4.80;;;;;;;15.64;100.00;100530.78;5053480;28;20280;-59
2022/05/18 00:51:36;;;;;;;5.20;4.60;;;;;;;15.57;100.00;100532.16;5055441;28;20227;-59
2022/05/18 00:54:22;;;;;;;5.50;4.53;;;;;;;15.54;100.00;100529.78;5047640;28;20668;-59
2022/05/18 00:56:54;;;;;;;8.07;4.67;;;;;;;15.51;100.00;100526.56;5069431;28;20319;-59
2022/05/18 00:59:24;;;;;;;5.00;4.40;;;;;;;15.53;100.00;100522.94;5069942;28;20625;-59
2022/05/18 01:01:51;;;;;;;5.60;4.07;;;;;;;15.50;100.00;100523.13;5077531;28;20224;-58
2022/05/18 01:04:18;;;;;;;6.00;4.63;;;;;;;15.54;100.00;100528.94;5054642;28;20212;-59
2022/05/18 01:06:50;;;;;;;5.87;4.03;;;;;;;15.45;100.00;100531.22;5069113;28;20173;-59
2022/05/18 01:09:20;;;;;;;5.13;4.47;;;;;;;15.34;100.00;100536.31;5068826;28;20209;-58
2022/05/18 01:11:45;;;;;;;5.70;3.90;;;;;;;15.32;100.00;100536.41;5076730;28;20721;-59
2022/05/18 01:14:19;;;;;;;6.10;4.80;;;;;;;15.28;100.00;100528.94;5058788;28;20181;-59
2022/05/18 01:16:45;;;;;;;6.37;4.30;;;;;;;15.26;100.00;100536.00;5053637;28;20292;-58
2022/05/18 01:19:19;;;;;;;4.87;4.07;;;;;;;15.25;100.00;100529.16;5052523;28;20726;-60
2022/05/18 01:21:56;;;;;;;6.70;5.27;;;;;;;15.18;100.00;100539.09;5042215;28;20232;-58
2022/05/18 01:24:50;;;;;;;6.03;4.03;;;;;;;15.16;100.00;100539.19;5052855;28;20173;-59
2022/05/18 01:27:15;;;;;;;6.97;4.47;;;;;;;15.14;100.00;100535.91;5042778;28;20558;-58
2022/05/18 01:29:40;;;;;;;6.87;4.93;;;;;;;15.09;100.00;100537.94;5053614;28;20174;-59
2022/05/18 01:32:11;;;;;;;8.03;4.67;;;;;;;15.11;100.00;100543.88;5058934;28;20236;-59
2022/05/18 01:34:41;;;;;;;8.30;4.90;;;;;;;15.15;100.00;100534.13;5053793;28;20173;-58
2022/05/18 01:37:07;;;;;;;7.20;4.70;;;;;;;15.10;100.00;100539.59;5053252;28;20178;-57
2022/05/18 01:39:50;;;;;;;5.87;4.47;;;;;;;15.00;100.00;100534.22;5052256;28;20316;-58
2022/05/18 01:42:27;;;;;;;6.80;5.30;;;;;;;14.96;100.00;100537.94;5023495;28;20307;-60
2022/05/18 01:44:53;;;;;;;6.00;4.77;;;;;;;14.98;100.00;100533.50;5032113;28;20656;-59
2022/05/18 01:47:18;;;;;;;9.60;4.90;;;;;;;15.00;100.00;100539.38;5033319;28;20181;-58
2022/05/18 01:49:45;;;;;;;7.30;5.67;;;;;;;15.06;100.00;100540.75;5030944;28;20273;-59
2022/05/18 01:52:12;;;;;;;5.63;5.00;;;;;;;15.02;100.00;100534.13;5048671;28;20312;-59
2022/05/18 01:54:43;;;;;;;7.10;5.40;;;;;;;14.98;100.00;100533.50;5068670;28;20182;-60
2022/05/18 01:57:09;;;;;;;8.07;5.63;;;;;;;15.03;100.00;100534.94;5052822;28;20589;-59
2022/05/18 01:59:35;;;;;;;7.90;5.40;;;;;;;14.99;100.00;100540.31;5053404;28;20262;-59
2022/05/18 02:02:01;;;;;;;7.43;5.13;;;;;;;14.95;100.00;100535.47;5061618;28;20243;-60
2022/05/18 02:04:26;;;;;;;7.70;5.30;;;;;;;14.90;100.00;100543.53;5053639;28;20170;-59
2022/05/18 02:06:52;;;;;;;6.77;4.87;;;;;;;14.87;100.00;100546.31;5052659;28;20189;-59
2022/05/18 02:09:19;;;;;;;6.63;4.70;;;;;;;14.84;100.00;100549.09;5053021;28;20169;-59
2022/05/18 02:11:45;;;;;;;6.63;4.87;;;;;;;14.82;100.00;100554.41;5075483;28;20224;-59
2022/05/18 02:14:10;;;;;;;6.13;4.73;;;;;;;14.74;100.00;100554.06;5057849;28;20538;-60
2022/05/18 02:16:36;;;;;;;7.97;4.60;;;;;;;14.72;100.00;100557.69;5052257;28;20229;-59
2022/05/18 02:19:03;;;;;;;7.43;4.80;;;;;;;14.72;100.00;100550.72;5051467;28;20177;-59
2022/05/18 02:21:28;;;;;;;7.27;4.57;;;;;;;14.66;100.00;100540.75;5053072;28;20233;-58
2022/05/18 02:23:54;;;;;;;5.63;4.90;;;;;;;14.65;100.00;100549.47;5041709;28;20184;-58
2022/05/18 02:26:19;;;;;;;9.97;5.87;;;;;;;14.67;100.00;100550.19;5032478;28;20517;-57
2022/05/18 02:28:45;;;;;;;6.20;5.00;;;;;;;14.68;100.00;100550.09;5032927;28;20174;-58
2022/05/18 02:31:11;;;;;;;5.73;5.07;;;;;;;14.64;100.00;100548.59;5033815;28;20236;-57
2022/05/18 02:33:36;;;;;;;5.30;4.67;;;;;;;14.60;100.00;100551.47;5051090;28;20200;-59
2022/05/18 02:36:02;;;;;;;9.20;5.20;;;;;;;14.45;100.00;100548.13;5052042;28;20589;-59
2022/05/18 02:38:28;;;;;;;7.63;5.73;;;;;;;14.44;100.00;100552.47;5051017;28;20215;-60
2022/05/18 02:40:57;;;;;;;7.07;5.07;;;;;;;14.39;100.00;100557.13;5049110;28;20304;-59
2022/05/18 02:43:23;;;;;;;6.53;5.07;;;;;;;14.47;100.00;100554.03;5060858;28;20169;-59
2022/05/18 02:45:49;;;;;;;5.00;4.43;;;;;;;14.48;100.00;100559.09;5052328;28;20181;-59
2022/05/18 02:48:14;;;;;;;8.73;4.80;;;;;;;14.49;100.00;100562.53;5047095;28;20270;-59
2022/05/18 02:50:40;;;;;;;4.67;4.23;;;;;;;14.45;100.00;100566.22;5044894;28;20637;-59
2022/05/18 02:53:06;;;;;;;6.70;5.20;;;;;;;14.42;100.00;100564.66;5074214;28;20197;-60
2022/05/18 02:58:15;;;;;;;8.67;5.57;;;;;;;14.40;100.00;100565.69;5051089;28;20704;-58
2022/05/18 03:00:40;;;;;;;5.03;4.37;;;;;;;14.38;100.00;100573.56;5036622;28;20319;-58
2022/05/18 03:03:06;;;;;;;6.27;5.20;;;;;;;14.27;100.00;100569.06;5062377;28;20318;-59
2022/05/18 03:05:31;;;;;;;6.53;4.83;;;;;;;14.30;100.00;100570.63;5050389;28;20629;-59
2022/05/18 03:07:58;;;;;;;5.67;5.17;;;;;;;14.31;100.00;100582.63;5051524;28;20173;-59
2022/05/18 03:10:24;;;;;;;5.83;4.77;;;;;;;14.31;100.00;100585.22;5047141;28;20601;-58
2022/05/18 03:12:49;;;;;;;4.70;4.20;;;;;;;14.31;100.00;100587.81;5080861;28;20195;-58
2022/05/18 03:15:15;;;;;;;6.60;4.83;;;;;;;14.33;100.00;100591.16;5042980;28;20288;-59
2022/05/18 03:17:41;;;;;;;7.30;5.40;;;;;;;14.35;100.00;100589.28;5049670;28;20688;-59
2022/05/18 03:20:07;;;;;;;7.50;5.80;;;;;;;14.31;100.00;100601.59;5040205;28;20307;-60
2022/05/18 03:25:16;;;;;;;5.40;4.53;;;;;;;14.24;100.00;100599.47;5051838;28;20204;-60
2022/05/18 03:27:43;;;;;;;5.57;4.60;;;;;;;14.24;100.00;100605.50;5051095;28;20174;-59
2022/05/18 03:30:10;;;;;;;9.23;4.90;;;;;;;14.22;100.00;100599.56;5020657;28;20192;-58
2022/05/18 03:32:35;;;;;;;6.47;5.10;;;;;;;14.22;100.00;100601.34;5050225;28;20189;-59
2022/05/18 03:35:00;;;;;;;8.40;5.20;;;;;;;14.07;100.00;100595.34;5051743;28;20648;-58
2022/05/18 03:37:26;;;;;;;7.43;5.37;;;;;;;14.03;100.00;100610.22;5051106;28;20182;-61
2022/05/18 03:39:51;;;;;;;6.67;4.97;;;;;;;13.99;100.00;100614.75;5051525;28;20177;-60
2022/05/18 03:42:16;;;;;;;8.40;5.80;;;;;;;13.95;100.00;100608.09;5039744;28;20253;-60
2022/05/18 03:44:41;;;;;;;7.63;5.67;;;;;;;13.98;100.00;100612.25;5050410;28;20570;-59
2022/05/18 03:47:07;;;;;;;7.33;5.93;;;;;;;14.01;100.00;100617.25;5040521;28;20263;-60
2022/05/18 03:49:32;;;;;;;6.27;4.90;;;;;;;14.03;100.00;100615.41;5031525;28;20193;-60
2022/05/18 03:51:58;;;;;;;8.13;5.73;;;;;;;14.10;100.00;100623.59;5052025;28;20671;-60
2022/05/18 03:54:23;;;;;;;8.30;5.90;;;;;;;14.14;100.00;100606.97;5032563;28;20250;-59
2022/05/18 03:56:48;;;;;;;7.63;5.83;;;;;;;14.18;100.00;100614.44;5031074;28;20189;-58
2022/05/18 03:59:14;;;;;;;7.43;5.77;;;;;;;14.22;100.00;100615.09;5031400;28;20235;-59
2022/05/18 04:01:41;;;;;;;5.97;5.20;;;;;;;14.26;100.00;100615.75;5046821;28;20251;-59
2022/05/18 04:04:07;;;;;;;7.53;5.33;;;;;;;14.23;100.00;100611.59;5032652;28;20272;-60
2022/05/18 04:06:33;;;;;;;7.83;6.13;;;;;;;14.24;100.00;100605.50;5029646;28;20178;-59
2022/05/18 04:08:58;;;;;;;5.90;5.20;;;;;;;14.38;100.00;100603.81;5030935;28;20197;-59
2022/05/18 04:11:24;;;;;;;8.20;5.33;;;;;;;14.43;100.00;100599.16;5042330;28;20307;-58
2022/05/18 04:13:50;;;;;;;7.13;5.50;;;;;;;14.53;100.00;100606.22;5051199;28;20185;-58
2022/05/18 04:16:16;;;;;;;7.20;5.47;;;;;;;14.59;100.00;100609.38;5050192;28;20262;-59
2022/05/18 04:18:41;;;;;;;7.33;6.23;;;;;;;14.51;100.00;100605.53;5050665;28;20584;-59
2022/05/18 04:21:06;;;;;;;6.50;5.90;;;;;;;14.68;100.00;100611.41;5048779;28;20683;-59
2022/05/18 04:23:32;;;;;;;6.13;5.53;;;;;;;14.73;100.00;100614.53;5058007;28;20169;-60
2022/05/18 04:25:57;;;;;;;6.93;4.93;;;;;;;14.76;100.00;100616.09;5050876;28;20174;-65
2022/05/18 04:28:22;;;;;;;7.80;5.07;;;;;;;14.81;100.00;100614.88;5050610;28;20613;-58
2022/05/18 04:30:49;;;;;;;6.17;5.03;;;;;;;14.84;100.00;100614.66;5046264;28;20251;-59
2022/05/18 04:33:18;;;;;;;6.13;5.53;;;;;;;14.93;100.00;100621.03;5049247;28;20181;-58
2022/05/18 04:35:44;;;;;;;6.63;5.27;;;;;;;14.95;100.00;100619.16;5049288;28;20219;-58
2022/05/18 04:38:09;;;;;;;6.07;5.03;;;;;;;15.00;100.00;100627.47;5050484;28;20165;-58
2022/05/18 04:40:35;;;;;;;7.80;5.40;;;;;;;15.11;100.00;100628.56;5038949;28;20243;-58
2022/05/18 04:43:00;;;;;;;6.23;5.50;;;;;;;15.19;100.00;100628.03;5047096;28;20182;-58
2022/05/18 04:45:25;;;;;;;8.27;6.30;;;;;;;15.19;100.00;100628.84;5041984;28;20637;-65
2022/05/18 04:47:51;;;;;;;7.30;6.57;;;;;;;15.25;100.00;100636.22;5050214;28;20177;-59
2022/05/18 04:50:18;;;;;;;7.20;6.43;;;;;;;15.40;100.00;100638.75;5044229;28;20563;-60
2022/05/18 04:52:43;;;;;;;10.87;6.37;;;;;;;15.37;100.00;100642.38;5078608;28;20186;-63
2022/05/18 04:55:10;;;;;;;9.23;6.30;;;;;;;15.16;100.00;100647.22;5050070;28;20264;-62
2022/05/18 04:57:35;;;;;;;7.10;6.40;;;;;;;15.40;100.00;100639.56;5047821;28;20204;-61
2022/05/18 05:00:03;;;;;;;8.50;6.77;;;;;;;15.67;100.00;100646.44;5049848;28;20179;-62
2022/05/18 05:02:28;;;;;;;9.70;6.47;;;;;;;15.85;100.00;100646.16;5031151;28;20217;-62
2022/05/18 05:04:54;;;;;;;8.50;5.70;;;;;;;15.75;100.00;100639.00;5037392;28;20258;-62
2022/05/18 05:07:19;;;;;;;8.30;5.90;;;;;;;15.75;100.00;100656.31;5061876;28;20659;-62
2022/05/18 05:09:45;;;;;;;8.03;6.17;;;;;;;15.94;100.00;100655.94;5029940;28;20184;-61
2022/05/18 05:12:10;;;;;;;7.70;5.90;;;;;;;16.26;100.00;100660.63;5052251;28;20244;-61
2022/05/18 05:14:40;;;;;;;8.33;5.80;;;;;;;16.35;100.00;100659.16;5046817;28;20197;-64
2022/05/18 05:17:06;;;;;;;9.97;6.00;;;;;;;16.67;100.00;100656.91;5064976;28;20229;-62
2022/05/18 05:19:31;;;;;;;7.97;5.50;;;;;;;16.83;100.00;100661.00;5048800;28;20206;-63
2022/05/18 05:21:56;;;;;;;7.50;5.80;;;;;;;17.12;100.00;100660.66;5057735;28;20726;-62
2022/05/18 05:24:22;;;;;;;10.53;6.07;;;;;;;17.37;98.67;100662.31;5054589;28;20205;-62
2022/05/18 05:26:49;;;;;;;9.40;6.23;;;;;;;17.60;94.81;100668.41;5053358;28;20182;-62
2022/05/18 05:29:15;;;;;;;12.40;7.03;;;;;;;17.80;92.21;100669.50;5051674;28;20216;-62
2022/05/18 05:31:40;;;;;;;7.90;6.93;;;;;;;17.91;90.31;100672.09;5055714;28;20730;-62
2022/05/18 05:34:05;;;;;;;12.37;8.77;;;;;;;17.96;90.48;100671.78;5056613;28;20185;-61
2022/05/18 05:36:32;;;;;;;11.33;9.30;;;;;;;17.92;90.23;100672.91;5053107;28;20181;-61
2022/05/18 05:38:57;;;;;;;11.10;8.77;;;;;;;18.10;90.01;100662.91;5052391;28;20177;-62
2022/05/18 05:41:23;;;;;;;11.43;8.43;;;;;;;18.39;88.13;100660.63;5057452;28;20235;-63
2022/05/18 05:43:50;;;;;;;9.80;7.87;;;;;;;18.45;86.13;100668.91;5037414;28;20194;-62
2022/05/18 05:46:15;;;;;;;7.73;7.00;;;;;;;18.41;86.53;100663.13;5033357;28;20935;-62
2022/05/18 05:48:43;;;;;;;10.47;7.17;;;;;;;18.62;85.25;100667.56;5032328;28;20178;-62
2022/05/18 05:51:13;;;;;;;9.70;7.10;;;;;;;18.53;86.60;100667.34;5050538;28;20232;-61
2022/05/18 05:53:43;;;;;;;11.70;6.47;;;;;;;18.80;85.01;100662.66;5046523;28;20181;-61
2022/05/18 05:56:10;;;;;;;9.10;6.07;;;;;;;18.91;83.63;100659.22;5031662;28;20200;-62
2022/05/18 05:58:37;;;;;;;10.00;5.43;;;;;;;18.81;85.13;100657.31;5031679;28;20190;-61
2022/05/18 06:01:04;;;;;;;8.33;5.67;;;;;;;19.06;82.86;100657.97;5049859;28;20228;-62
2022/05/18 06:03:31;;;;;;;7.53;5.87;;;;;;;19.23;81.07;100663.59;5039792;28;20178;-62
2022/05/18 06:05:56;;;;;;;8.63;5.40;;;;;;;19.34;80.48;100666.97;5048470;28;20705;-62
2022/05/18 06:08:22;;;;;;;7.00;5.87;;;;;;;19.68;78.87;100666.78;5032977;28;20621;-62
2022/05/18 06:10:48;;;;;;;8.47;5.13;;;;;;;20.13;75.24;100667.38;5035036;28;20232;-62
2022/05/18 06:13:13;;;;;;;7.23;5.07;;;;;;;20.37;72.94;100671.47;5057906;28;20177;-63
2022/05/18 06:15:39;;;;;;;8.87;4.70;;;;;;;20.16;73.32;100672.34;5053008;28;20202;-63
2022/05/18 06:18:04;;;;;;;8.53;5.00;;;;;;;20.39;72.32;100664.31;5052314;28;20296;-63
2022/05/18 06:20:30;;;;;;;10.13;5.47;;;;;;;20.43;72.67;100669.13;5046063;28;20320;-62
2022/05/18 06:22:58;;;;;;;7.77;4.83;;;;;;;20.61;71.96;100671.91;5064853;28;20260;-62
2022/05/18 06:25:23;;;;;;;9.73;4.83;;;;;;;20.46;68.53;100675.88;5051441;28;20181;-63
2022/05/18 06:27:49;;;;;;;5.47;4.13;;;;;;;20.43;70.09;100674.34;5052011;28;20187;-62
2022/05/18 06:30:16;;;;;;;5.73;4.73;;;;;;;20.82;68.28;100675.41;5043902;28;20174;-62
2022/05/18 06:32:42;;;;;;;4.90;4.33;;;;;;;21.36;65.94;100686.25;5064914;28;20234;-62
2022/05/18 06:35:08;;;;;;;6.57;5.07;;;;;;;21.84;62.89;100687.16;5051313;28;20185;-62
2022/05/18 06:37:34;;;;;;;8.50;4.70;;;;;;;22.67;58.89;100695.03;5051234;28;20225;-62
2022/05/18 06:40:01;;;;;;;6.67;4.50;;;;;;;23.64;54.70;100684.72;5056577;28;20212;-62
2022/05/18 06:42:26;;;;;;;6.73;4.80;;;;;;;24.64;50.33;100684.13;5074387;28;20241;-64
2022/05/18 06:44:51;;;;;;;7.53;4.57;;;;;;;25.26;48.20;100692.56;5052251;28;20512;-63
2022/05/18 06:47:17;;;;;;;7.70;4.00;;;;;;;25.22;48.25;100696.53;5067332;28;20182;-63
2022/05/18 06:49:43;;;;;;;5.93;4.27;;;;;;;25.09;48.86;100700.50;5052322;28;20173;-63
2022/05/18 06:52:11;;;;;;;6.88;4.07;;;;;;;26.64;44.32;100696.75;5076152;28;20228;-63
2022/05/18 06:54:36;;;;;;;8.02;3.65;;;;;;;26.79;43.63;100698.66;5067449;28;20177;-64
2022/05/18 06:57:02;;;;;;;4.30;3.72;;;;;;;26.19;44.33;100709.69;5048642;28;20454;-63
2022/05/18 06:59:28;;;;;;;8.00;3.83;;;;;;;27.65;41.16;100701.91;5034672;28;20190;-63
2022/05/18 07:01:53;;;;;;;5.63;3.90;;;;;;;28.53;39.98;100702.97;5038702;28;20295;-62
2022/05/18 07:04:18;;;;;;;10.65;4.60;;;;;;;26.34;43.42;100701.88;5050714;28;20186;-64
2022/05/18 07:06:45;;;;;;;4.88;3.70;;;;;;;27.29;41.90;100701.72;5050883;28;20188;-63
2022/05/18 07:09:16;;;;;;;4.50;4.10;;;;;;;28.49;38.65;100706.00;5066559;28;20178;-65
2022/05/18 07:11:43;;;;;;;6.60;3.72;;;;;;;29.19;37.31;100705.44;5058843;28;20235;-64
2022/05/18 07:14:09;;;;;;;5.72;3.65;;;;;;;29.58;36.44;100706.78;5049266;28;20659;-62
2022/05/18 07:16:34;;;;;;;6.72;3.58;;;;;;;29.44;36.55;100713.00;5065018;28;20232;-61
2022/05/18 07:19:00;;;;;;;11.80;3.65;;;;;;;28.87;37.29;100707.63;5056360;28;20185;-63
2022/05/18 07:21:26;;;;;;;5.05;3.67;;;;;;;29.15;37.58;100706.84;5037533;28;20225;-69
2022/05/18 07:23:53;;;;;;;6.18;3.63;;;;;;;29.34;35.79;100713.34;5029706;28;20205;-62
2022/05/18 07:26:20;;;;;;;4.32;3.30;;;;;;;29.28;37.03;100714.06;5046104;28;20208;-66
2022/05/18 07:28:47;;;;;;;7.28;3.97;;;;;;;29.79;35.32;100715.63;5029817;28;20190;-63
2022/05/18 07:31:13;;;;;;;6.38;3.10;;;;;;;29.86;36.07;100713.84;5011950;28;20618;-63
2022/05/18 07:33:39;;;;;;;6.68;3.95;;;;;;;30.85;34.12;100714.41;5048777;28;20205;-64
2022/05/18 07:36:05;;;;;;;7.60;3.72;;;;;;;31.38;32.65;100718.91;5047793;28;20650;-63
2022/05/18 07:38:33;;;;;;;8.05;3.58;;;;;;;29.57;35.11;100712.25;5058879;28;20490;-64
2022/05/18 07:40:59;;;;;;;6.55;3.70;;;;;;;29.94;34.50;100712.88;5055614;28;20231;-64
2022/05/18 07:43:25;;;;;;;5.93;3.33;;;;;;;30.99;33.06;100715.22;5057093;28;20570;-68
2022/05/18 07:45:54;;;;;;;4.60;3.42;;;;;;;31.53;31.44;100721.34;5051587;28;20182;-68
2022/05/18 07:48:21;;;;;;;7.50;3.10;;;;;;;31.29;32.18;100712.16;5046886;28;20632;-67
2022/05/18 07:50:47;;;;;;;5.65;2.83;;;;;;;30.99;33.26;100720.53;5049357;28;20631;-69
2022/05/18 07:53:13;;;;;;;5.85;3.20;;;;;;;31.78;30.38;100711.88;5069723;28;20190;-69
2022/05/18 07:55:38;;;;;;;3.13;2.78;;;;;;;30.82;32.17;100714.78;5046931;28;20601;-69
2022/05/18 07:58:05;;;;;;;11.55;2.92;;;;;;;30.27;32.62;100714.88;5050802;28;20257;-68
2022/05/18 08:00:31;;;;;;;3.45;2.50;;;;;;;31.84;30.84;100714.53;5027155;28;20675;-69
2022/05/18 08:02:56;;;;;;;4.15;2.30;;;;;;;31.49;30.45;100708.66;5055409;28;20190;-72
2022/05/18 08:05:22;;;;;;;3.60;2.80;;;;;;;32.04;30.18;100697.69;5031561;28;20178;-70
2022/05/18 08:07:47;;;;;;;3.80;2.40;;;;;;;32.35;30.40;100709.44;5030414;28;20771;-68
2022/05/18 08:15:46;;;;;;;2.63;2.40;;;;;;;33.19;29.05;100695.09;5029523;28;20730;-69
2022/05/18 08:18:12;;;;;;;3.75;2.40;;;;;;;32.68;28.67;100695.06;5050936;28;20221;-71
2022/05/18 08:20:40;;;;;;;4.68;2.55;;;;;;;32.69;28.89;100698.56;5047378;28;20224;-69
2022/05/18 08:23:06;;;;;;;3.25;2.40;;;;;;;32.24;28.48;100700.28;5073153;28;20273;-69
2022/05/18 08:25:32;;;;;;;5.40;2.65;;;;;;;32.43;28.36;100706.50;5051524;28;20189;-70
2022/05/18 08:27:57;;;;;;;4.25;2.80;;;;;;;33.51;26.92;100709.16;5050546;28;20235;-68
2022/05/18 08:30:24;;;;;;;2.85;2.28;;;;;;;32.51;28.43;100708.09;5043160;28;20278;-68
2022/05/18 08:32:50;;;;;;;8.52;3.38;;;;;;;32.07;29.57;100712.41;5046481;28;20267;-70
2022/05/18 08:35:17;;;;;;;5.30;4.35;;;;;;;31.97;30.21;100705.69;5044922;28;20317;-68
2022/05/18 08:37:46;;;;;;;4.18;2.72;;;;;;;33.25;28.54;100708.34;5048941;28;20185;-70
2022/05/18 08:40:35;;;;;;;4.78;2.70;;;;;;;32.32;28.88;100705.31;5040901;28;20651;-69
2022/05/18 08:43:04;;;;;;;6.63;2.92;;;;;;;31.83;31.00;100702.25;5061508;28;20208;-71
2022/05/18 08:45:37;;;;;;;5.20;2.60;;;;;;;32.58;29.92;100710.72;5050457;28;20185;-69
2022/05/18 08:48:07;;;;;;;3.50;2.72;;;;;;;33.50;27.48;100702.19;5031700;28;20218;-71
2022/05/18 08:50:34;;;;;;;5.93;2.95;;;;;;;34.01;27.19;100700.16;5055742;28;20291;-69
2022/05/18 08:53:02;;;;;;;3.80;2.60;;;;;;;35.25;26.07;100705.94;5029071;28;20190;-69
2022/05/18 08:56:08;;;;;;;4.47;2.58;;;;;;;34.42;26.59;100713.81;5041178;28;20598;-69
2022/05/18 08:58:38;;;;;;;4.75;3.08;;;;;;;33.85;26.09;100709.63;5054339;28;20272;-70
2022/05/18 09:01:11;;;;;;;3.40;2.67;;;;;;;32.50;28.29;100709.94;5047189;28;20236;-70
2022/05/18 09:03:45;;;;;;;4.05;2.55;;;;;;;31.26;30.48;100709.09;5028555;28;20283;-72
2022/05/18 09:06:32;;;;;;;4.20;3.00;;;;;;;30.43;32.25;100706.53;5028564;28;20281;-70
2022/05/18 09:12:01;;;;;;;3.85;2.50;;;;;;;33.09;28.77;100706.25;5035349;28;20236;-72
2022/05/18 09:14:30;;;;;;;4.65;2.85;;;;;;;34.72;26.91;100720.97;5023531;28;20705;-70
2022/05/18 09:17:15;;;;;;;20.02;3.13;;;;;;;33.99;27.16;100722.78;5032025;28;20229;-65
2022/05/18 09:19:49;;;;;;;3.72;2.60;;;;;;;33.59;27.84;100719.53;5025420;28;20220;-69
2022/05/18 09:22:24;;;;;;;5.75;3.75;;;;;;;33.21;27.82;100711.69;5057226;28;20371;-69
2022/05/18 09:25:18;;;;;;;6.10;2.50;;;;;;;35.48;24.92;100723.03;5053686;28;20235;-69
2022/05/18 09:28:01;;;;;;;6.00;2.97;;;;;;;35.41;24.73;100711.66;5039875;28;20190;-69
2022/05/18 09:30:26;;;;;;;5.60;2.47;;;;;;;35.92;25.64;100717.25;5056529;28;20661;-69
2022/05/18 09:33:12;;;;;;;3.55;2.58;;;;;;;35.79;24.45;100716.47;5029173;28;20202;-68
2022/05/18 09:35:46;;;;;;;4.97;2.38;;;;;;;33.84;26.29;100713.34;5022648;28;20199;-69
2022/05/18 09:38:20;;;;;;;3.38;2.45;;;;;;;35.01;24.52;100713.97;5033763;28;20196;-66
2022/05/18 09:40:47;;;;;;;6.28;2.53;;;;;;;35.06;24.54;100716.75;5059260;28;20240;-68
2022/05/18 09:43:26;;;;;;;2.47;2.17;;;;;;;35.91;25.40;100710.28;5043526;28;20170;-60
2022/05/18 09:45:55;;;;;;;4.85;2.65;;;;;;;36.49;23.99;100705.72;5065823;28;20657;-60
2022/05/18 09:48:37;;;;;;;5.30;2.40;;;;;;;34.36;25.77;100712.91;5031971;28;20182;-59
2022/05/18 09:51:05;;;;;;;3.92;2.70;;;;;;;30.47;31.52;100708.81;5057486;28;20272;-60
2022/05/18 09:53:31;;;;;;;3.70;2.85;;;;;;;30.70;31.21;100698.66;5032163;28;20271;-58
2022/05/18 09:55:56;;;;;;;3.42;2.70;;;;;;;32.05;29.53;100693.97;5033407;28;20322;-59
2022/05/18 09:58:45;;;;;;;2.70;2.47;;;;;;;34.14;26.32;100695.69;5048431;28;20189;-60
2022/05/18 10:09:42;;;;;;;3.47;2.65;;;;;;;31.36;29.74;100688.25;5032830;28;20542;-59
2022/05/18 10:12:47;;;;;;;6.45;2.80;;;;;;;33.33;27.31;100691.31;5040739;28;20266;-59
2022/05/18 10:15:48;;;;;;;2.72;2.15;;;;;;;34.64;25.76;100684.72;5033418;28;20205;-59
2022/05/18 10:18:22;;;;;;;4.22;2.58;;;;;;;34.19;26.02;100682.50;5042296;28;20680;-60
2022/05/18 10:21:09;;;;;;;5.45;2.40;;;;;;;33.19;26.58;100679.09;5048698;28;20236;-60
2022/05/18 10:23:45;;;;;;;3.55;2.35;;;;;;;34.55;26.50;100684.25;5059848;28;20260;-58
2022/05/18 10:26:20;;;;;;;4.65;2.22;;;;;;;36.08;24.24;100686.25;5052987;28;20174;-59
2022/05/18 10:28:55;;;;;;;2.20;2.00;;;;;;;37.14;21.57;100688.25;5048749;28;20199;-58
2022/05/18 10:32:01;;;;;;;4.20;2.08;;;;;;;35.38;24.52;100689.66;5052503;28;20232;-59
2022/05/18 10:34:30;;;;;;;2.63;1.98;;;;;;;34.19;25.11;100677.97;5053234;28;20186;-59
2022/05/18 10:37:01;;;;;;;4.45;2.40;;;;;;;36.96;23.27;100683.97;5052385;28;20201;-60
2022/05/18 10:39:44;;;;;;;2.83;2.17;;;;;;;35.70;22.57;100683.06;5051556;28;20279;-61
2022/05/18 10:42:23;;;;;;;4.65;2.13;;;;;;;33.68;25.77;100668.53;5041384;28;20260;-60
2022/05/18 10:44:49;;;;;;;2.05;1.85;;;;;;;32.38;27.59;100676.25;5053012;28;20544;-59
2022/05/18 10:47:22;;;;;;;2.92;2.20;;;;;;;31.22;28.79;100663.53;5052501;28;20174;-58
2022/05/18 10:49:48;;;;;;;4.85;2.00;;;;;;;31.00;30.15;100652.31;5051291;28;20208;-60
2022/05/18 10:52:39;;;;;;;3.15;1.80;;;;;;;29.60;31.09;100648.25;5039170;28;20626;-59
2022/05/18 10:55:14;;;;;;;2.65;2.15;;;;;;;28.38;33.36;100639.53;5028752;28;20190;-58
2022/05/18 10:57:41;;;;;;;7.65;1.88;;;;;;;27.91;33.62;100641.63;5046663;28;20280;-59
2022/05/18 11:00:11;;;;;;;3.38;1.65;;;;;;;27.58;31.97;100640.19;5011802;28;20230;-60
2022/05/18 11:02:50;;;;;;;2.03;1.52;;;;;;;28.00;32.70;100637.88;5046224;28;20304;-72
2022/05/18 11:05:15;;;;;;;3.40;2.20;;;;;;;28.16;32.58;100628.94;5032037;28;20268;-73
2022/05/18 11:07:41;;;;;;;3.50;2.00;;;;;;;28.51;33.46;100635.19;5030594;28;20273;-73
2022/05/18 11:10:07;;;;;;;3.20;1.70;;;;;;;28.00;34.77;100629.94;5022251;28;20219;-75
2022/05/18 11:13:04;;;;;;;5.35;2.00;;;;;;;27.84;32.63;100630.97;5080762;28;20726;-74
2022/05/18 11:15:38;;;;;;;2.03;1.83;;;;;;;27.88;32.30;100626.97;5025638;28;20301;-74
2022/05/18 11:18:10;;;;;;;2.85;1.95;;;;;;;27.65;32.93;100617.34;5058882;28;20312;-73
2022/05/18 11:20:53;;;;;;;2.47;1.77;;;;;;;27.75;32.49;100619.69;5043541;28;20262;-72
2022/05/18 11:23:30;;;;;;;8.48;1.70;;;;;;;27.59;32.74;100611.97;5058694;28;20180;-72
2022/05/18 11:26:07;;;;;;;2.33;1.77;;;;;;;27.88;34.54;100611.09;5048876;28;20173;-73
2022/05/18 11:29:01;;;;;;;2.30;1.92;;;;;;;28.03;32.70;100619.00;5048961;28;20200;-72
2022/05/18 11:31:42;;;;;;;4.13;2.28;;;;;;;27.62;32.87;100612.41;5031805;28;20778;-73
2022/05/18 11:34:18;;;;;;;2.72;1.98;;;;;;;27.52;32.63;100623.28;5049502;28;20193;-73
2022/05/18 11:37:09;;;;;;;2.65;1.52;;;;;;;27.73;32.00;100613.75;5051533;28;20238;-72
2022/05/18 11:40:31;;;;;;;3.53;1.77;;;;;;;27.35;32.16;100604.09;5042011;28;20608;-74
2022/05/18 11:43:30;;;;;;;2.47;1.80;;;;;;;27.65;33.25;100600.66;4943925;28;20228;-72
2022/05/18 11:46:10;;;;;;;1.88;1.55;;;;;;;28.14;33.45;100601.84;4969930;28;20207;-79
2022/05/18 11:49:01;;;;;;;6.20;1.90;;;;;;;28.00;31.19;100601.69;4969842;28;20580;-71
2022/05/18 11:51:32;;;;;;;3.25;1.40;;;;;;;28.10;31.66;100593.47;4971022;28;20231;-71
2022/05/18 11:54:13;;;;;;;2.88;1.75;;;;;;;28.22;31.46;100599.09;4971590;28;20211;-71